Time;durP1;ratioP1;P1;durP2;ratioP2;P2;SDS_P1;SDS_P2;PMS_P1;PMS_P2;Temp;Humidity;BMP_temperature;BMP_pressure;BME280_temperature;BME280_humidity;BME280_pressure;Samples;Min_cycle;Max_cycle;Signal;HPM_P1;HPM_P2
2023/10/28 00:01:30;;;;;;;;;;;;;;;8.85;100.00;99373.06;5024732;28;19940;-78
2023/10/28 00:04:16;;;;;;;;;;;;;;;8.83;100.00;99381.06;5022535;28;20006;-78
2023/10/28 00:07:01;;;;;;;;;;;;;;;8.82;100.00;99375.88;5028143;28;19966;-79
2023/10/28 00:09:47;;;;;;;;;;;;;;;8.80;100.00;99385.69;5025359;28;19983;-77
2023/10/28 00:12:33;;;;;;;;;;;;;;;8.77;100.00;99389.34;5038579;28;20011;-78
2023/10/28 00:15:19;;;;;;;;;;;;;;;8.74;100.00;99384.28;5041071;28;19928;-79
2023/10/28 00:18:05;;;;;;;;;;;;;;;8.74;100.00;99386.06;5025960;28;19932;-78
2023/10/28 00:20:50;;;;;;;;;;;;;;;8.74;100.00;99392.19;5022337;28;19920;-79
2023/10/28 00:23:36;;;;;;;;;;;;;;;8.74;100.00;99391.31;5039455;28;19941;-78
2023/10/28 00:26:22;;;;;;;;;;;;;;;8.71;100.00;99402.09;5025840;28;19929;-78
2023/10/28 00:29:08;;;;;;;;;;;;;;;8.67;100.00;99396.16;5037214;28;20604;-79
2023/10/28 00:31:53;;;;;;;;;;;;;;;8.65;100.00;99395.38;5039083;28;19921;-79
2023/10/28 00:34:39;;;;;;;;;;;;;;;8.63;100.00;99398.13;5034689;28;19929;-78
2023/10/28 00:37:25;;;;;;;;;;;;;;;8.61;100.00;99402.63;5012021;28;19940;-79
2023/10/28 00:40:15;;;;;;;;;;;;;;;8.60;100.00;99400.94;5017491;28;19933;-80
2023/10/28 00:43:00;;;;;;;;;;;;;;;8.57;100.00;99411.69;5016305;28;20395;-78
2023/10/28 00:45:46;;;;;;;;;;;;;;;8.55;100.00;99414.41;5011059;28;20023;-78
2023/10/28 00:48:32;;;;;;;;;;;;;;;8.53;100.00;99407.50;5017297;28;20047;-77
2023/10/28 00:51:19;;;;;;;;;;;;;;;8.52;100.00;99411.09;5011181;28;19936;-80
2023/10/28 00:54:04;;;;;;;;;;;;;;;8.50;100.00;99410.31;4989840;28;19929;-80
2023/10/28 00:56:50;;;;;;;;;;;;;;;8.47;100.00;99406.06;4997122;28;20292;-77
2023/10/28 00:59:36;;;;;;;;;;;;;;;8.46;100.00;99411.44;4998734;28;20788;-79
2023/10/28 01:02:21;;;;;;;;;;;;;;;8.43;100.00;99415.97;5012920;28;20573;-77
2023/10/28 01:05:13;;;;;;;;;;;;;;;8.41;100.00;99416.97;5017445;28;19921;-79
2023/10/28 01:07:59;;;;;;;;;;;;;;;8.42;100.00;99423.94;5000411;28;19975;-78
2023/10/28 01:10:44;;;;;;;;;;;;;;;8.40;100.00;99416.13;5005728;28;19980;-79
2023/10/28 01:13:30;;;;;;;;;;;;;;;8.39;100.00;99413.59;5021165;28;19936;-78
2023/10/28 01:16:16;;;;;;;;;;;;;;;8.38;100.00;99417.16;5005458;28;20879;-79
2023/10/28 01:19:01;;;;;;;;;;;;;;;8.36;100.00;99408.47;5004058;28;19924;-79
2023/10/28 01:21:47;;;;;;;;;;;;;;;8.35;100.00;99404.16;5020763;28;20459;-79
2023/10/28 01:24:34;;;;;;;;;;;;;;;8.35;100.00;99398.88;5021744;28;19972;-78
2023/10/28 01:27:20;;;;;;;;;;;;;;;8.33;100.00;99398.97;5003642;28;19925;-79
2023/10/28 01:30:13;;;;;;;;;;;;;;;8.31;100.00;99397.34;5002718;28;19978;-78
2023/10/28 01:32:58;;;;;;;;;;;;;;;8.29;100.00;99405.38;5018302;28;21850;-78
2023/10/28 01:35:44;;;;;;;;;;;;;;;8.26;100.00;99400.28;5004463;28;20611;-79
2023/10/28 01:38:30;;;;;;;;;;;;;;;8.25;100.00;99396.81;5026288;28;19984;-78
2023/10/28 01:41:16;;;;;;;;;;;;;;;8.23;100.00;99397.81;5019217;28;19940;-79
2023/10/28 01:44:02;;;;;;;;;;;;;;;8.22;100.00;99389.06;5007398;28;21684;-79
2023/10/28 01:46:48;;;;;;;;;;;;;;;8.21;100.00;99382.09;5005615;28;19938;-78
2023/10/28 01:49:37;;;;;;;;;;;;;;;8.20;100.00;99383.03;5006846;28;19940;-80
2023/10/28 01:52:22;;;;;;;;;;;;;;;8.20;100.00;99387.44;5003929;28;20108;-77
2023/10/28 01:55:09;;;;;;;;;;;;;;;8.19;100.00;99391.03;5016968;28;19951;-79
2023/10/28 01:57:55;;;;;;;;;;;;;;;8.17;100.00;99391.09;5017144;28;20010;-79
2023/10/28 02:00:44;;;;;;;;;;;;;;;8.17;100.00;99395.53;5017918;28;19932;-78
2023/10/28 02:03:30;;;;;;;;;;;;;;;8.13;100.00;99393.06;5003561;28;19933;-78
2023/10/28 02:06:16;;;;;;;;;;;;;;;8.10;100.00;99395.03;5020047;28;19935;-78
2023/10/28 02:09:02;;;;;;;;;;;;;;;8.08;100.00;99399.56;5005070;28;19935;-79
2023/10/28 02:11:52;;;;;;;;;;;;;;;8.04;100.00;99398.03;5004501;28;19929;-79
2023/10/28 02:14:37;;;;;;;;;;;;;;;8.01;100.00;99389.38;5016381;28;19925;-79
2023/10/28 02:17:29;;;;;;;;;;;;;;;7.99;100.00;99395.66;5012684;28;19975;-80
2023/10/28 02:20:16;;;;;;;;;;;;;;;7.94;100.00;99401.22;5003995;28;20829;-79
2023/10/28 02:23:02;;;;;;;;;;;;;;;7.91;100.00;99401.41;5014400;28;20499;-79
2023/10/28 02:25:51;;;;;;;;;;;;;;;7.86;100.00;99403.44;5015968;28;19929;-78
2023/10/28 02:28:36;;;;;;;;;;;;;;;7.83;100.00;99403.59;5016250;28;19933;-79
2023/10/28 02:31:22;;;;;;;;;;;;;;;7.79;100.00;99402.09;5013034;28;19937;-78
2023/10/28 02:34:07;;;;;;;;;;;;;;;7.73;100.00;99395.38;5018240;28;20516;-78
2023/10/28 02:36:53;;;;;;;;;;;;;;;7.68;100.00;99406.16;5027585;28;19928;-79
2023/10/28 02:39:39;;;;;;;;;;;;;;;7.64;100.00;99398.53;5040726;28;19937;-79
2023/10/28 02:42:27;;;;;;;;;;;;;;;7.60;100.00;99403.13;5024673;28;20018;-78
2023/10/28 02:45:14;;;;;;;;;;;;;;;7.53;100.00;99400.00;5006431;28;19928;-79
2023/10/28 02:48:00;;;;;;;;;;;;;;;7.49;100.00;99403.72;5040794;28;19928;-79
2023/10/28 02:50:46;;;;;;;;;;;;;;;7.44;100.00;99406.63;5026527;28;20034;-79
2023/10/28 02:53:31;;;;;;;;;;;;;;;7.40;100.00;99399.81;5040684;28;19936;-79
2023/10/28 02:56:17;;;;;;;;;;;;;;;7.37;100.00;99400.00;5022173;28;19927;-78
2023/10/28 02:59:05;;;;;;;;;;;;;;;7.33;100.00;99404.59;5045509;28;19933;-80
2023/10/28 03:01:51;;;;;;;;;;;;;;;7.30;100.00;99404.72;5028380;28;19925;-78
2023/10/28 03:04:36;;;;;;;;;;;;;;;7.27;100.00;99404.91;5045389;28;19913;-79
2023/10/28 03:07:22;;;;;;;;;;;;;;;7.25;100.00;99398.03;5030047;28;19972;-78
2023/10/28 03:10:10;;;;;;;;;;;;;;;7.22;100.00;99400.81;5013712;28;19924;-78
2023/10/28 03:12:55;;;;;;;;;;;;;;;7.19;100.00;99407.09;5009305;28;20141;-79
2023/10/28 03:15:48;;;;;;;;;;;;;;;7.17;100.00;99403.69;5042726;28;19929;-79
2023/10/28 03:18:34;;;;;;;;;;;;;;;7.16;100.00;99402.00;5030003;28;20012;-78
2023/10/28 03:21:20;;;;;;;;;;;;;;;7.13;100.00;99396.94;5029557;28;19931;-79
2023/10/28 03:24:06;;;;;;;;;;;;;;;7.07;100.00;99398.09;5023573;28;19933;-78
2023/10/28 03:26:52;;;;;;;;;;;;;;;7.04;100.00;99393.84;5041215;28;20048;-79
2023/10/28 03:29:39;;;;;;;;;;;;;;;7.00;100.00;99387.06;5042756;28;20382;-79
2023/10/28 03:32:25;;;;;;;;;;;;;;;6.98;100.00;99386.25;5024330;28;19928;-79
2023/10/28 03:35:11;;;;;;;;;;;;;;;6.96;100.00;99395.19;5021556;28;19932;-78
2023/10/28 03:37:57;;;;;;;;;;;;;;;6.93;100.00;99396.22;5001366;28;19936;-78
2023/10/28 03:40:44;;;;;;;;;;;;;;;6.89;100.00;99406.06;5011567;28;20480;-79
2023/10/28 03:43:30;;;;;;;;;;;;;;;6.86;100.00;99403.56;5010697;28;19973;-79
2023/10/28 03:46:18;;;;;;;;;;;;;;;6.82;100.00;99399.41;4992636;28;19933;-80
2023/10/28 03:49:03;;;;;;;;;;;;;;;6.80;100.00;99403.88;5002809;28;19932;-78
2023/10/28 03:51:53;;;;;;;;;;;;;;;6.77;100.00;99396.16;5011743;28;19956;-79
2023/10/28 03:54:39;;;;;;;;;;;;;;;6.75;100.00;99401.50;4995487;28;19940;-78
2023/10/28 03:57:24;;;;;;;;;;;;;;;6.74;100.00;99407.69;5005003;28;19941;-78
2023/10/28 04:00:16;;;;;;;;;;;;;;;6.73;100.00;99407.78;4995357;28;20362;-79
2023/10/28 04:03:02;;;;;;;;;;;;;;;6.71;100.00;99410.47;4997836;28;19929;-78
2023/10/28 04:05:49;;;;;;;;;;;;;;;6.69;100.00;99401.81;5016608;28;20044;-79
2023/10/28 04:08:34;;;;;;;;;;;;;;;6.68;100.00;99401.91;5001464;28;20196;-78
2023/10/28 04:11:20;;;;;;;;;;;;;;;6.65;100.00;99403.78;5015583;28;19969;-79
2023/10/28 04:14:06;;;;;;;;;;;;;;;6.64;100.00;99399.44;4998229;28;19929;-78
2023/10/28 04:16:51;;;;;;;;;;;;;;;6.62;100.00;99398.69;5015026;28;19933;-78
2023/10/28 04:19:37;;;;;;;;;;;;;;;6.61;100.00;99407.50;5001191;28;19929;-79
2023/10/28 04:22:23;;;;;;;;;;;;;;;6.59;100.00;99401.44;5002528;28;20377;-79
2023/10/28 04:25:09;;;;;;;;;;;;;;;6.60;100.00;99394.44;5022247;28;19937;-79
2023/10/28 04:27:55;;;;;;;;;;;;;;;6.61;100.00;99396.13;5010876;28;19976;-79
2023/10/28 04:30:41;;;;;;;;;;;;;;;6.61;100.00;99396.13;5010627;28;19940;-79
2023/10/28 04:33:27;;;;;;;;;;;;;;;6.61;100.00;99397.00;4995940;28;19925;-79
2023/10/28 04:36:12;;;;;;;;;;;;;;;6.61;100.00;99397.00;5014732;28;19939;-79
2023/10/28 04:38:58;;;;;;;;;;;;;;;6.61;100.00;99391.72;5021300;28;19966;-78
2023/10/28 04:41:43;;;;;;;;;;;;;;;6.61;100.00;99393.50;5035027;28;20325;-77
2023/10/28 04:44:29;;;;;;;;;;;;;;;6.64;100.00;99401.22;5028591;28;20968;-78
2023/10/28 04:47:15;;;;;;;;;;;;;;;6.66;100.00;99402.00;5026071;28;19959;-78
2023/10/28 04:50:01;;;;;;;;;;;;;;;6.69;100.00;99404.47;5024599;28;19925;-78
2023/10/28 04:52:47;;;;;;;;;;;;;;;6.72;100.00;99398.19;5040999;28;19954;-79
2023/10/28 04:55:32;;;;;;;;;;;;;;;6.75;100.00;99398.03;5042272;28;19991;-77
2023/10/28 04:58:18;;;;;;;;;;;;;;;6.77;100.00;99390.91;5040085;28;19935;-78
2023/10/28 05:01:04;;;;;;;;;;;;;;;6.81;100.00;99388.97;5035860;28;20439;-79
2023/10/28 05:03:49;;;;;;;;;;;;;;;6.85;100.00;99387.84;5017330;28;20030;-79
2023/10/28 05:06:37;;;;;;;;;;;;;;;6.87;100.00;99384.22;5038651;28;19978;-82
2023/10/28 05:09:23;;;;;;;;;;;;;;;6.92;100.00;99378.72;5038488;28;19929;-79
2023/10/28 05:12:09;;;;;;;;;;;;;;;6.92;100.00;99384.81;5038214;28;20003;-78
2023/10/28 05:14:54;;;;;;;;;;;;;;;6.96;100.00;99393.41;5026685;28;19955;-77
2023/10/28 05:17:40;;;;;;;;;;;;;;;6.99;100.00;99393.25;5029148;28;19930;-77
2023/10/28 05:20:26;;;;;;;;;;;;;;;7.01;100.00;99395.78;5042185;28;20010;-79
2023/10/28 05:23:13;;;;;;;;;;;;;;;7.02;100.00;99395.72;5039475;28;20501;-78
2023/10/28 05:25:59;;;;;;;;;;;;;;;7.02;100.00;99393.06;5043336;28;20900;-78
2023/10/28 05:28:47;;;;;;;;;;;;;;;7.02;100.00;99395.72;5017903;28;20337;-78
2023/10/28 05:31:33;;;;;;;;;;;;;;;7.01;100.00;99395.78;5022137;28;19929;-79
2023/10/28 05:34:20;;;;;;;;;;;;;;;7.01;100.00;99403.69;5029235;28;20016;-79
2023/10/28 05:37:07;;;;;;;;;;;;;;;6.99;100.00;99400.28;5023839;28;19925;-77
2023/10/28 05:39:52;;;;;;;;;;;;;;;6.95;100.00;99404.88;5021398;28;19932;-77
2023/10/28 05:42:38;;;;;;;;;;;;;;;6.92;100.00;99400.59;5036598;28;20439;-78
2023/10/28 05:45:23;;;;;;;;;;;;;;;6.92;100.00;99410.31;5034885;28;19992;-78
2023/10/28 05:48:15;;;;;;;;;;;;;;;6.92;100.00;99411.13;5039758;28;19933;-78
2023/10/28 05:51:02;;;;;;;;;;;;;;;6.95;100.00;99409.25;5039652;28;19929;-77
2023/10/28 05:53:48;;;;;;;;;;;;;;;6.99;100.00;99405.56;5038433;28;19929;-76
2023/10/28 05:56:35;;;;;;;;;;;;;;;7.04;100.00;99408.78;5037527;28;19925;-78
2023/10/28 05:59:21;;;;;;;;;;;;;;;7.08;100.00;99407.69;5037060;28;19921;-77
2023/10/28 06:02:06;;;;;;;;;;;;;;;7.11;100.00;99404.03;5038936;28;19929;-78
2023/10/28 06:04:52;;;;;;;;;;;;;;;7.14;100.00;99407.34;5035482;28;19928;-78
2023/10/28 06:07:38;;;;;;;;;;;;;;;7.19;100.00;99417.63;5028932;28;19964;-77
2023/10/28 06:10:25;;;;;;;;;;;;;;;7.23;100.00;99407.81;5033725;28;19929;-78
2023/10/28 06:13:14;;;;;;;;;;;;;;;7.26;100.00;99408.50;5035108;28;19982;-77
2023/10/28 06:16:00;;;;;;;;;;;;;;;7.30;100.00;99414.44;5024661;28;19932;-78
2023/10/28 06:18:46;;;;;;;;;;;;;;;7.33;100.00;99407.22;5037615;28;21331;-77
2023/10/28 06:21:35;;;;;;;;;;;;;;;7.39;100.00;99418.31;5034208;28;19925;-77
2023/10/28 06:24:20;;;;;;;;;;;;;;;7.44;100.00;99418.94;5034346;28;20051;-79
2023/10/28 06:27:07;;;;;;;;;;;;;;;7.50;100.00;99420.34;5036309;28;19959;-78
2023/10/28 06:29:53;;;;;;;;;;;;;;;7.55;100.00;99423.59;5035976;28;19968;-79
2023/10/28 06:32:38;;;;;;;;;;;;;;;7.59;100.00;99425.97;5033589;28;19932;-78
2023/10/28 06:35:25;;;;;;;;;;;;;;;7.64;100.00;99417.84;5034390;28;20400;-79
2023/10/28 06:38:11;;;;;;;;;;;;;;;7.70;100.00;99430.66;5017379;28;19929;-78
2023/10/28 06:40:59;;;;;;;;;;;;;;;7.75;100.00;99431.22;5017427;28;20013;-77
2023/10/28 06:43:45;;;;;;;;;;;;;;;7.81;100.00;99435.31;4999970;28;19928;-78
2023/10/28 06:46:31;;;;;;;;;;;;;;;7.85;100.00;99439.47;5013349;28;19980;-78
2023/10/28 06:49:17;;;;;;;;;;;;;;;7.88;100.00;99446.34;4995530;28;19929;-78
2023/10/28 06:52:03;;;;;;;;;;;;;;;7.93;100.00;99452.22;4988744;28;19960;-77
2023/10/28 06:54:51;;;;;;;;;;;;;;;7.98;100.00;99446.69;5002488;28;19944;-79
2023/10/28 06:57:37;;;;;;;;;;;;;;;8.01;100.00;99444.72;5017111;28;19972;-77
2023/10/28 07:00:28;;;;;;;;;;;;;;;8.06;100.00;99454.16;5000508;28;20747;-78
2023/10/28 07:03:14;;;;;;;;;;;;;;;8.08;100.00;99442.59;5017906;28;19964;-78
2023/10/28 07:06:04;;;;;;;;;;;;;;;8.13;100.00;99455.50;5011080;28;19928;-79
2023/10/28 07:08:49;;;;;;;;;;;;;;;8.17;100.00;99457.00;4996014;28;19933;-78
2023/10/28 07:11:35;;;;;;;;;;;;;;;8.23;100.00;99454.03;5014940;28;21903;-78
2023/10/28 07:14:20;;;;;;;;;;;;;;;8.28;100.00;99449.34;4994551;28;19925;-78
2023/10/28 07:17:06;;;;;;;;;;;;;;;8.34;100.00;99453.41;5016418;28;19994;-76
2023/10/28 07:19:55;;;;;;;;;;;;;;;8.39;100.00;99455.78;4999941;28;19952;-78
2023/10/28 07:22:41;;;;;;;;;;;;;;;8.44;100.00;99453.72;5012032;28;20286;-79
2023/10/28 07:25:27;;;;;;;;;;;;;;;8.49;100.00;99450.81;5002977;28;19993;-80
2023/10/28 07:28:19;;;;;;;;;;;;;;;8.52;100.00;99454.16;5012771;28;19950;-78
2023/10/28 07:31:06;;;;;;;;;;;;;;;8.56;100.00;99453.03;4981506;28;19983;-78
2023/10/28 07:33:51;;;;;;;;;;;;;;;8.61;100.00;99454.56;5001512;28;19932;-78
2023/10/28 07:36:39;;;;;;;;;;;;;;;8.65;100.00;99461.31;5024437;28;20295;-78
2023/10/28 07:39:24;;;;;;;;;;;;;;;8.68;100.00;99467.25;5031775;28;19940;-77
2023/10/28 07:42:10;;;;;;;;;;;;;;;8.72;100.00;99465.28;5009572;28;20660;-78
2023/10/28 07:44:56;;;;;;;;;;;;;;;8.74;100.00;99467.84;5036827;28;20243;-79
2023/10/28 07:47:41;;;;;;;;;;;;;;;8.76;100.00;99474.72;5024724;28;19929;-79
2023/10/28 07:50:28;;;;;;;;;;;;;;;8.78;100.00;99483.41;5021508;28;19932;-78
2023/10/28 07:53:13;;;;;;;;;;;;;;;8.80;100.00;99480.69;5041268;28;20458;-78
2023/10/28 07:55:59;;;;;;;;;;;;;;;8.82;100.00;99481.44;5026407;28;19928;-79
2023/10/28 07:58:45;;;;;;;;;;;;;;;8.83;100.00;99477.88;5037992;28;19939;-78
2023/10/28 08:01:30;;;;;;;;;;;;;;;8.83;100.00;99485.78;5030601;28;19921;-78
2023/10/28 08:04:16;;;;;;;;;;;;;;;8.83;100.00;99478.72;5034170;28;19932;-78
2023/10/28 08:07:02;;;;;;;;;;;;;;;8.85;100.00;99478.63;5020897;28;19928;-78
2023/10/28 08:09:47;;;;;;;;;;;;;;;8.85;100.00;99478.63;5038385;28;19933;-78
2023/10/28 08:12:34;;;;;;;;;;;;;;;8.86;100.00;99475.03;5044557;28;20012;-78
2023/10/28 08:15:23;;;;;;;;;;;;;;;8.88;100.00;99474.94;5039034;28;19932;-80
2023/10/28 08:18:09;;;;;;;;;;;;;;;8.88;100.00;99482.88;5039870;28;20208;-78
2023/10/28 08:20:54;;;;;;;;;;;;;;;8.89;100.00;99480.13;5041609;28;20739;-79
2023/10/28 08:23:40;;;;;;;;;;;;;;;8.90;100.00;99479.19;5043547;28;19939;-79
2023/10/28 08:26:26;;;;;;;;;;;;;;;8.93;100.00;99478.16;5041753;28;20404;-78
2023/10/28 08:29:14;;;;;;;;;;;;;;;8.92;100.00;99479.09;5041203;28;20560;-79
2023/10/28 08:32:00;;;;;;;;;;;;;;;8.92;100.00;99477.31;5035159;28;19916;-78
2023/10/28 08:34:45;;;;;;;;;;;;;;;8.93;100.00;99484.28;5042782;28;20078;-78
2023/10/28 08:37:31;;;;;;;;;;;;;;;8.95;100.00;99484.19;5042146;28;21406;-78
2023/10/28 08:40:18;;;;;;;;;;;;;;;8.98;100.00;99488.44;5042770;28;20433;-78
2023/10/28 08:43:03;;;;;;;;;;;;;;;8.98;100.00;99486.63;5044178;28;19936;-78
2023/10/28 08:45:49;;;;;;;;;;;;;;;9.01;100.00;99480.31;5022862;28;21769;-78
2023/10/28 08:48:37;;;;;;;;;;;;;;;9.03;100.00;99487.22;5040485;28;19925;-79
2023/10/28 08:51:23;;;;;;;;;;;;;;;9.05;100.00;99490.59;5035491;28;19940;-78
2023/10/28 08:54:10;;;;;;;;;;;;;;;9.08;100.00;99489.56;5017736;28;20023;-77
2023/10/28 08:56:59;;;;;;;;;;;;;;;9.08;100.00;99482.50;5008109;28;19924;-78
2023/10/28 08:59:44;;;;;;;;;;;;;;;9.09;100.00;99486.84;5041242;28;20011;-79
2023/10/28 09:02:30;;;;;;;;;;;;;;;9.10;100.00;99483.25;5039091;28;19964;-78
2023/10/28 09:05:16;;;;;;;;;;;;;;;9.14;100.00;99496.28;5040124;28;20150;-78
2023/10/28 09:08:02;;;;;;;;;;;;;;;9.17;100.00;99491.66;5019525;28;19925;-77
2023/10/28 09:10:51;;;;;;;;;;;;;;;9.18;100.00;99482.78;5024492;28;19928;-77
2023/10/28 09:13:38;;;;;;;;;;;;;;;9.23;100.00;99487.78;5022506;28;19975;-78
2023/10/28 09:16:24;;;;;;;;;;;;;;;9.26;100.00;99492.03;5040241;28;19929;-78
2023/10/28 09:19:19;;;;;;;;;;;;;;;9.29;100.00;99497.97;5026771;28;19921;-78
2023/10/28 09:22:09;;;;;;;;;;;;;;;9.32;100.00;99497.78;5026614;28;19936;-79
2023/10/28 09:24:58;;;;;;;;;;;;;;;9.35;100.00;99487.03;5037501;28;20434;-79
2023/10/28 09:27:45;;;;;;;;;;;;;;;9.37;100.00;99493.06;5040081;28;21806;-78
2023/10/28 09:30:32;;;;;;;;;;;;;;;9.40;100.00;99493.81;5016441;28;19950;-78
2023/10/28 09:33:20;;;;;;;;;;;;;;;9.41;100.00;99499.00;5008567;28;20916;-78
2023/10/28 09:36:06;;;;;;;;;;;;;;;9.43;100.00;99505.03;5026339;28;19952;-78
2023/10/28 09:38:53;;;;;;;;;;;;;;;9.46;100.00;99498.72;5027165;28;19928;-78
2023/10/28 09:41:39;;;;;;;;;;;;;;;9.49;100.00;99504.66;5024740;28;19929;-78
2023/10/28 09:44:25;;;;;;;;;;;;;;;9.52;100.00;99508.91;5025593;28;20449;-78
2023/10/28 09:47:12;;;;;;;;;;;;;;;9.57;100.00;99511.25;5022577;28;19929;-79
2023/10/28 09:50:00;;;;;;;;;;;;;;;9.61;100.00;99505.72;5032072;28;20291;-79
2023/10/28 09:52:45;;;;;;;;;;;;;;;9.64;100.00;99502.84;5031033;28;20030;-78
2023/10/28 09:55:34;;;;;;;;;;;;;;;9.67;100.00;99506.25;5026699;28;19943;-78
2023/10/28 09:58:20;;;;;;;;;;;;;;;9.69;100.00;99504.38;5042105;28;19972;-78
2023/10/28 10:01:18;;;;;;;;;;;;;;;9.70;100.00;99514.81;5040886;28;19940;-79
2023/10/28 10:04:06;;;;;;;;;;;;;;;9.73;100.00;99509.34;5039244;28;19928;-78
2023/10/28 10:06:52;;;;;;;;;;;;;;;9.72;100.00;99512.09;5041380;28;21189;-78
2023/10/28 10:09:42;;;;;;;;;;;;;;;9.74;100.00;99502.25;5026528;28;19928;-77
2023/10/28 10:12:33;;;;;;;;;;;;;;;9.75;100.00;99511.91;5031251;28;20519;-77
2023/10/28 10:15:22;;;;;;;;;;;;;;;9.76;100.00;99508.31;5024018;28;19929;-78
2023/10/28 10:18:10;;;;;;;;;;;;;;;9.80;100.00;99516.91;5026263;28;20063;-79
2023/10/28 10:21:04;;;;;;;;;;;;;;;9.80;100.00;99498.41;5031635;28;19929;-77
2023/10/28 10:23:56;;;;;;;;;;;;;;;9.80;100.00;99507.16;5029420;28;19928;-78
2023/10/28 10:26:41;;;;;;;;;;;;;;;9.82;100.00;99509.72;5031135;28;19925;-78
2023/10/28 10:29:29;;;;;;;;;;;;;;;9.84;100.00;99507.81;5037735;28;20015;-78
2023/10/28 10:32:18;;;;;;;;;;;;;;;9.84;100.00;99508.69;5007737;28;20445;-79
2023/10/28 10:35:08;;;;;;;;;;;;;;;9.87;100.00;99508.47;5026871;28;20288;-78
2023/10/28 10:38:04;;;;;;;;;;;;;;;9.91;100.00;99504.69;5020659;28;19948;-78
2023/10/28 10:40:52;;;;;;;;;;;;;;;9.97;100.00;99507.91;5023994;28;20402;-79
2023/10/28 10:43:38;;;;;;;;;;;;;;;10.03;100.00;99499.56;5004963;28;19928;-77
2023/10/28 10:46:24;;;;;;;;;;;;;;;10.09;100.00;99507.09;5011123;28;19936;-79
2023/10/28 10:49:09;;;;;;;;;;;;;;;10.16;100.00;99503.13;5030953;28;19933;-79
2023/10/28 10:51:55;;;;;;;;;;;;;;;10.19;100.00;99494.97;5007063;28;21573;-78
2023/10/28 10:54:41;;;;;;;;;;;;;;;10.19;100.00;99494.97;5014797;28;20296;-79
2023/10/28 10:57:26;;;;;;;;;;;;;;;10.22;100.00;99501.00;5029230;28;19933;-79
2023/10/28 11:00:14;;;;;;;;;;;;;;;10.21;100.00;99496.66;5010383;28;20037;-78
2023/10/28 11:03:00;;;;;;;;;;;;;;;10.18;100.00;99501.22;5032240;28;19933;-76
2023/10/28 11:05:46;;;;;;;;;;;;;;;10.18;100.00;99503.00;5026458;28;22036;-82
2023/10/28 11:08:32;;;;;;;;;;;;;;;10.16;100.00;99497.81;5028991;28;20023;-79
2023/10/28 11:11:17;;;;;;;;;;;;;;;10.18;100.00;99503.84;5028268;28;19929;-78
2023/10/28 11:14:04;;;;;;;;;;;;;;;10.19;100.00;99491.50;5015976;28;19929;-79
2023/10/28 11:16:50;;;;;;;;;;;;;;;10.21;100.00;99488.72;5013003;28;19932;-79
2023/10/28 11:19:36;;;;;;;;;;;;;;;10.19;100.00;99487.03;5013429;28;20897;-80
2023/10/28 11:22:21;;;;;;;;;;;;;;;10.18;100.00;99495.91;5014097;28;20375;-78
2023/10/28 11:25:07;;;;;;;;;;;;;;;10.19;100.00;99487.03;5008287;28;19925;-79
2023/10/28 11:27:53;;;;;;;;;;;;;;;10.21;100.00;99486.94;5029701;28;20364;-78
2023/10/28 11:30:39;;;;;;;;;;;;;;;10.25;100.00;99479.66;5030881;28;20017;-80
2023/10/28 11:33:25;;;;;;;;;;;;;;;10.29;100.00;99481.13;5029260;28;19987;-79
2023/10/28 11:36:11;;;;;;;;;;;;;;;10.33;100.00;99478.19;5014251;28;19996;-78
2023/10/28 11:39:07;;;;;;;;;;;;;;;10.39;100.00;99482.22;5007136;28;19929;-78
2023/10/28 11:41:54;;;;;;;;;;;;;;;10.44;100.00;99482.81;5006685;28;19983;-79
2023/10/28 11:44:40;;;;;;;;;;;;;;;10.49;100.00;99485.13;5007082;28;19933;-78
2023/10/28 11:47:27;;;;;;;;;;;;;;;10.52;100.00;99486.75;5002483;28;20001;-79
2023/10/28 11:50:13;;;;;;;;;;;;;;;10.53;100.00;99489.28;5008085;28;19981;-78
2023/10/28 11:52:58;;;;;;;;;;;;;;;10.53;100.00;99480.50;4996705;28;19929;-79
2023/10/28 11:55:45;;;;;;;;;;;;;;;10.54;100.00;99492.75;4992715;28;19940;-79
2023/10/28 11:58:30;;;;;;;;;;;;;;;10.58;100.00;99481.88;5006885;28;19987;-78
2023/10/28 12:01:16;;;;;;;;;;;;;;;10.63;100.00;99486.88;5007230;28;19934;-79
2023/10/28 12:04:07;;;;;;;;;;;;;;;10.65;100.00;99482.31;4982147;28;19928;-78
2023/10/28 12:06:53;;;;;;;;;;;;;;;10.65;100.00;99494.69;4995032;28;19929;-80
2023/10/28 12:09:38;;;;;;;;;;;;;;;10.65;100.00;99484.09;4999460;28;19996;-78
2023/10/28 12:12:24;;;;;;;;;;;;;;;10.65;100.00;99489.41;4986700;28;20587;-80
2023/10/28 12:15:10;;;;;;;;;;;;;;;10.66;100.00;99494.59;4994437;28;20023;-79
2023/10/28 12:17:55;;;;;;;;;;;;;;;10.66;100.00;99494.59;4996194;28;19929;-79
2023/10/28 12:20:41;;;;;;;;;;;;;;;10.67;100.00;99491.00;4995114;28;19952;-79
2023/10/28 12:23:27;;;;;;;;;;;;;;;10.70;100.00;99489.94;4999564;28;19933;-80
2023/10/28 12:26:12;;;;;;;;;;;;;;;10.73;100.00;99487.94;5002899;28;20012;-81
2023/10/28 12:28:58;;;;;;;;;;;;;;;10.78;100.00;99489.44;4992814;28;19967;-78
2023/10/28 12:31:44;;;;;;;;;;;;;;;10.80;100.00;99474.28;5009498;28;19929;-78
2023/10/28 12:34:29;;;;;;;;;;;;;;;10.85;100.00;99477.47;5008347;28;19936;-79
2023/10/28 12:37:16;;;;;;;;;;;;;;;10.88;100.00;99482.53;5001825;28;20067;-79
2023/10/28 12:40:02;;;;;;;;;;;;;;;10.89;100.00;99478.94;4983474;28;20442;-79
2023/10/28 12:42:49;;;;;;;;;;;;;;;10.89;100.00;99478.94;4998823;28;19979;-79
2023/10/28 12:45:34;;;;;;;;;;;;;;;10.90;100.00;99480.63;5014391;28;19980;-79
2023/10/28 12:48:20;;;;;;;;;;;;;;;10.93;100.00;99475.13;4990394;28;19936;-77
2023/10/28 12:51:06;;;;;;;;;;;;;;;10.93;100.00;99480.44;5019833;28;20304;-80
2023/10/28 12:53:52;;;;;;;;;;;;;;;10.94;100.00;99471.53;4986740;28;20340;-79
2023/10/28 12:56:38;;;;;;;;;;;;;;;10.94;100.00;99476.81;5016256;28;19934;-79
2023/10/28 12:59:23;;;;;;;;;;;;;;;10.94;100.00;99482.13;5003617;28;19933;-81
2023/10/28 13:02:09;;;;;;;;;;;;;;;10.99;100.00;99476.50;5014563;28;20061;-79
2023/10/28 13:04:54;;;;;;;;;;;;;;;11.05;100.00;99467.31;5014425;28;19929;-78
2023/10/28 13:07:40;;;;;;;;;;;;;;;11.09;100.00;99474.06;5014971;28;19973;-79
2023/10/28 13:10:27;;;;;;;;;;;;;;;11.13;100.00;99475.56;5016861;28;19941;-80
2023/10/28 13:13:14;;;;;;;;;;;;;;;11.16;100.00;99472.69;5016170;28;19956;-79
2023/10/28 13:16:00;;;;;;;;;;;;;;;11.17;100.00;99477.03;5000067;28;19933;-82
2023/10/28 13:18:46;;;;;;;;;;;;;;;11.17;100.00;99470.91;5012060;28;19936;-78
2023/10/28 13:21:32;;;;;;;;;;;;;;;11.14;100.00;99480.75;5021490;28;19983;-80
2023/10/28 13:24:19;;;;;;;;;;;;;;;11.12;100.00;99484.47;5016852;28;19929;-79
2023/10/28 13:27:04;;;;;;;;;;;;;;;11.10;100.00;99475.75;5007115;28;19975;-78
2023/10/28 13:29:50;;;;;;;;;;;;;;;11.07;100.00;99478.63;5015609;28;20002;-78
2023/10/28 13:32:36;;;;;;;;;;;;;;;11.04;100.00;99477.03;5013156;28;20491;-79
2023/10/28 13:35:21;;;;;;;;;;;;;;;11.03;100.00;99485.09;4997415;28;19933;-77
2023/10/28 13:38:07;;;;;;;;;;;;;;;10.99;100.00;99493.25;5005763;28;19933;-78
2023/10/28 13:40:53;;;;;;;;;;;;;;;10.98;100.00;99496.84;5000755;28;19932;-78
2023/10/28 13:43:39;;;;;;;;;;;;;;;10.95;100.00;99494.41;5031125;28;19956;-79
2023/10/28 13:46:25;;;;;;;;;;;;;;;10.93;100.00;99488.38;5003641;28;19933;-79
2023/10/28 13:49:11;;;;;;;;;;;;;;;10.91;100.00;99487.66;5037398;28;19990;-77
2023/10/28 13:52:01;;;;;;;;;;;;;;;10.89;100.00;99481.59;5034997;28;19928;-79
2023/10/28 13:54:46;;;;;;;;;;;;;;;10.85;100.00;99486.25;5033753;28;20383;-77
2023/10/28 13:57:32;;;;;;;;;;;;;;;10.85;100.00;99482.75;5015652;28;19968;-78
2023/10/28 14:00:18;;;;;;;;;;;;;;;10.84;100.00;99495.13;5034599;28;20051;-78
2023/10/28 14:03:03;;;;;;;;;;;;;;;10.82;100.00;99493.53;5014241;28;19940;-79
2023/10/28 14:05:49;;;;;;;;;;;;;;;10.82;100.00;99496.19;5036084;28;19948;-79
2023/10/28 14:08:35;;;;;;;;;;;;;;;10.81;100.00;99497.16;5024709;28;19956;-80
2023/10/28 14:11:24;;;;;;;;;;;;;;;10.81;100.00;99486.56;5012929;28;20039;-78
2023/10/28 14:14:13;;;;;;;;;;;;;;;10.83;100.00;99489.94;5029539;28;19929;-79
2023/10/28 14:16:59;;;;;;;;;;;;;;;10.83;100.00;99492.59;5036660;28;19929;-80
2023/10/28 14:19:46;;;;;;;;;;;;;;;10.82;100.00;99498.84;5024678;28;19935;-78
2023/10/28 14:22:31;;;;;;;;;;;;;;;10.78;100.00;99508.78;5012587;28;21816;-79